Time,TemperatureF,DewpointF,PressureIn,WindDirection,WindDirectionDegrees,WindSpeedMPH,WindSpeedGustMPH,Humidity,HourlyPrecipIn,Conditions,Clouds,dailyrainin,SoftwareType,DateUTC
2013-08-26 00:21:00,76.0,61.0,29.99,ESE,102,4.0,8.0,59,0.00,,,0.00,,2013-08-26 07:21:00,
2013-08-26 00:52:00,74.0,60.0,29.99,SE,132,3.0,4.0,61,0.00,,,0.00,,2013-08-26 07:52:00,
2013-08-26 01:11:00,73.0,60.0,29.99,SE,144,2.0,5.0,63,0.00,,,0.00,,2013-08-26 08:11:00,
2013-08-26 01:22:00,73.0,58.0,30.00,WNW,294,0.0,4.0,60,0.00,,,0.00,,2013-08-26 08:22:00,
2013-08-26 01:52:00,72.0,58.0,30.00,SSE,156,0.0,7.0,62,0.00,,,0.00,,2013-08-26 08:52:00,
2013-08-26 02:11:00,72.0,58.0,30.00,SW,225,0.0,3.0,61,0.00,,,0.00,,2013-08-26 09:11:00,
2013-08-26 02:21:00,74.0,58.0,29.99,SSW,206,2.0,7.0,58,0.00,,,0.00,,2013-08-26 09:21:00,
2013-08-26 02:53:00,72.0,56.0,30.00,WSW,240,0.0,5.0,58,0.00,,,0.00,,2013-08-26 09:53:00,
2013-08-26 03:12:00,70.0,56.0,30.00,WSW,240,0.0,2.0,61,0.00,,,0.00,,2013-08-26 10:12:00,
2013-08-26 03:23:00,70.0,55.0,30.00,WSW,240,0.0,3.0,60,0.00,,,0.00,,2013-08-26 10:23:00,
2013-08-26 03:52:00,69.0,56.0,30.01,WSW,240,4.0,5.0,64,0.00,,,0.00,,2013-08-26 10:52:00,
2013-08-26 04:11:00,69.0,56.0,30.01,WSW,240,4.0,5.0,64,0.00,,,0.00,,2013-08-26 11:11:00,
2013-08-26 04:22:00,70.0,59.0,30.01,SSW,195,5.0,6.0,67,0.00,,,0.00,,2013-08-26 11:22:00,
2013-08-26 04:52:00,69.0,59.0,30.01,SSE,152,0.0,6.0,70,0.00,,,0.00,,2013-08-26 11:52:00,
2013-08-26 05:12:00,70.0,59.0,30.01,South,169,1.0,4.0,69,0.00,,,0.00,,2013-08-26 12:12:00,
2013-08-26 05:21:00,69.0,59.0,30.01,South,169,0.0,2.0,70,0.00,,,0.00,,2013-08-26 12:21:00,
2013-08-26 05:52:00,67.0,57.0,30.02,South,169,0.0,0.0,70,0.00,,,0.00,,2013-08-26 12:52:00,
2013-08-26 06:11:00,66.0,57.0,30.02,South,169,0.0,0.0,73,0.00,,,0.00,,2013-08-26 13:11:00,
2013-08-26 06:21:00,66.0,56.0,30.03,South,169,3.0,3.0,71,0.00,,,0.00,,2013-08-26 13:21:00,
2013-08-26 06:42:00,67.0,57.0,30.03,South,169,4.0,5.0,70,0.00,,,0.00,,2013-08-26 13:42:00,
2013-08-26 06:52:00,67.0,58.0,30.03,South,169,4.0,5.0,74,0.00,,,0.00,,2013-08-26 13:52:00,
2013-08-26 07:22:00,68.0,59.0,30.04,South,180,4.0,5.0,73,0.00,,,0.00,,2013-08-26 14:22:00,
2013-08-26 07:42:00,69.0,60.0,30.04,South,180,5.0,8.0,72,0.00,,,0.00,,2013-08-26 14:42:00,
2013-08-26 07:52:00,73.0,61.0,30.05,SSE,164,2.0,5.0,67,0.00,,,0.00,,2013-08-26 14:52:00,
2013-08-26 08:47:00,76.0,62.0,30.05,West,278,3.0,6.0,61,0.00,,,0.00,,2013-08-26 15:47:00,
2013-08-26 08:59:00,77.0,61.0,30.05,WSW,239,1.0,5.0,58,0.00,,,0.00,,2013-08-26 15:59:00,
2013-08-26 09:17:00,78.0,62.0,30.05,WSW,239,1.0,4.0,57,0.00,,,0.00,,2013-08-26 16:17:00,
2013-08-26 09:29:00,78.0,61.0,30.05,West,274,0.0,5.0,56,0.00,,,0.00,,2013-08-26 16:29:00,
2013-08-26 09:59:00,80.0,60.0,30.05,NNW,345,5.0,6.0,51,0.00,,,0.00,,2013-08-26 16:59:00,
2013-08-26 10:12:00,81.0,61.0,30.04,NE,36,1.0,6.0,51,0.00,,,0.00,,2013-08-26 17:12:00,
2013-08-26 10:23:00,82.0,60.0,30.04,NNE,17,1.0,5.0,47,0.00,,,0.00,,2013-08-26 17:23:00,
2013-08-26 10:42:00,82.0,60.0,30.04,ENE,76,2.0,7.0,48,0.00,,,0.00,,2013-08-26 17:42:00,
2013-08-26 10:53:00,82.0,61.0,30.03,East,83,0.0,6.0,49,0.00,,,0.00,,2013-08-26 17:53:00,
2013-08-26 11:12:00,84.0,62.0,30.03,NE,38,0.0,6.0,48,0.00,,,0.00,,2013-08-26 18:12:00,
2013-08-26 11:21:00,83.0,62.0,30.03,NNE,30,3.0,5.0,49,0.00,,,0.00,,2013-08-26 18:21:00,
2013-08-26 11:52:00,85.0,62.0,30.02,SE,130,1.0,7.0,47,0.00,,,0.00,,2013-08-26 18:52:00,
2013-08-26 12:11:00,85.0,61.0,30.01,NE,41,6.0,9.0,45,0.00,,,0.00,,2013-08-26 19:11:00,
2013-08-26 12:22:00,86.0,60.0,30.01,ENE,65,4.0,5.0,42,0.00,,,0.00,,2013-08-26 19:22:00,
2013-08-26 12:42:00,86.0,57.0,30.01,ENE,61,4.0,7.0,38,0.00,,,0.00,,2013-08-26 19:42:00,
2013-08-26 12:52:00,88.0,59.0,29.99,SE,126,3.0,7.0,38,0.00,,,0.00,,2013-08-26 19:52:00,
2013-08-26 13:11:00,89.0,59.0,29.99,NE,51,3.0,9.0,37,0.00,,,0.00,,2013-08-26 20:11:00,
2013-08-26 13:21:00,89.0,61.0,29.98,SE,134,5.0,10.0,39,0.00,,,0.00,,2013-08-26 20:21:00,
2013-08-26 13:42:00,87.0,60.0,29.99,ENE,62,5.0,15.0,40,0.00,,,0.00,,2013-08-26 20:42:00,
2013-08-26 13:52:00,90.0,60.0,29.98,NE,53,4.0,11.0,37,0.00,,,0.00,,2013-08-26 20:52:00,
2013-08-26 14:22:00,89.0,61.0,29.97,ENE,63,3.0,11.0,39,0.00,,,0.00,,2013-08-26 21:22:00,
2013-08-26 14:55:00,90.0,59.0,29.96,NE,51,5.0,11.0,36,0.00,,,0.00,,2013-08-26 21:55:00,
2013-08-26 15:16:00,89.0,59.0,29.96,ESE,103,8.0,14.0,37,0.00,,,0.00,,2013-08-26 22:16:00,
2013-08-26 15:26:00,89.0,59.0,29.95,SE,126,12.0,16.0,36,0.00,,,0.00,,2013-08-26 22:26:00,
2013-08-26 15:53:00,89.0,59.0,29.95,ESE,113,9.0,19.0,36,0.00,,,0.00,,2013-08-26 22:53:00,
2013-08-26 16:21:00,89.0,59.0,29.94,SE,130,7.0,20.0,36,0.00,,,0.00,,2013-08-26 23:21:00,
2013-08-26 16:52:00,88.0,58.0,29.94,SE,139,11.0,18.0,37,0.00,,,0.00,,2013-08-26 23:52:00,
2013-08-26 17:21:00,88.0,59.0,29.94,ESE,107,10.0,17.0,38,0.00,,,0.00,,2013-08-27 00:21:00,
2013-08-26 17:42:00,88.0,60.0,29.94,ESE,116,4.0,14.0,39,0.00,,,0.00,,2013-08-27 00:42:00,
2013-08-26 17:52:00,86.0,60.0,29.93,ESE,103,14.0,18.0,41,0.00,,,0.00,,2013-08-27 00:52:00,
2013-08-26 18:12:00,86.0,60.0,29.93,East,99,11.0,17.0,41,0.00,,,0.00,,2013-08-27 01:12:00,
2013-08-26 18:21:00,87.0,60.0,29.93,ESE,105,11.0,16.0,40,0.00,,,0.00,,2013-08-27 01:21:00,
2013-08-26 18:52:00,84.0,59.0,29.93,ESE,108,10.0,15.0,43,0.00,,,0.00,,2013-08-27 01:52:00,
2013-08-26 19:21:00,83.0,59.0,29.94,ESE,103,11.0,15.0,44,0.00,,,0.00,,2013-08-27 02:21:00,
2013-08-26 19:52:00,82.0,59.0,29.95,ESE,110,5.0,12.0,45,0.00,,,0.00,,2013-08-27 02:52:00,
2013-08-26 20:22:00,81.0,57.0,29.95,ESE,115,6.0,13.0,44,0.00,,,0.00,,2013-08-27 03:22:00,
2013-08-26 20:44:00,81.0,57.0,29.93,ESE,105,7.0,10.0,44,0.00,,,0.00,,2013-08-27 03:44:00,
2013-08-26 20:58:00,80.0,56.0,29.94,SE,124,5.0,9.0,44,0.00,,,0.00,,2013-08-27 03:58:00,
2013-08-26 21:17:00,80.0,56.0,29.94,ESE,118,5.0,10.0,44,0.00,,,0.00,,2013-08-27 04:17:00,
2013-08-26 21:46:00,80.0,57.0,29.95,SE,134,6.0,11.0,46,0.00,,,0.00,,2013-08-27 04:46:00,
2013-08-26 21:54:00,78.0,57.0,29.95,SE,141,5.0,9.0,49,0.00,,,0.00,,2013-08-27 04:54:00,
2013-08-26 22:23:00,77.0,57.0,29.96,SE,146,2.0,4.0,51,0.00,,,0.00,,2013-08-27 05:23:00,
2013-08-26 22:52:00,77.0,59.0,29.96,SSE,167,6.0,10.0,54,0.00,,,0.00,,2013-08-27 05:52:00,
2013-08-26 23:21:00,77.0,60.0,29.96,South,171,2.0,10.0,56,0.00,,,0.00,,2013-08-27 06:21:00,
2013-08-26 23:42:00,76.0,60.0,29.96,South,171,3.0,3.0,57,0.00,,,0.00,,2013-08-27 06:42:00,
2013-08-26 23:52:00,77.0,60.0,29.96,WSW,237,1.0,4.0,56,0.00,,,0.00,,2013-08-27 06:52:00,